Exceptional Flight Instruction

Our Team

Safe Aircraft

Our Rentals

Outstanding Customer Service

Contact Us

TAA Flight Training, LLC
1030 PTI Drive
Greensboro, NC 27409

Phone: (336) 369-2804
Fax: (336) 664-6942

AeroCamp Times (M-F 9AM-3PM)
June 20-24, 2016 – OPEN
July 11-15, 2015 – OPEN
July 25-29, 2015 – OPEN
$599/wk per Cadet (Roster size limited)

AeroCamp 2.0 Times (M-T 9AM-3PM)
June 27-30, 2016 – OPEN
August 8-11, 2016 – OPEN
$699/wk per Cadet (Roster size limited)

AeroCamp 3.0 Times (M-W – INCLUDES KITTY HAWK!)
June 13-15, 2016 – OPEN
July 6-8, 2016 – OPEN
$799/wk per Cadet (Roster size limited)

Available data for KGSO from the past 2 hours

metar

  • KGSO 071354Z 03006KT 10SM FEW100 OVC160 02/M08 A3009 RMK AO2 SLP195 T00171078
  • KGSO 071254Z 36006KT 10SM OVC150 01/M08 A3008 RMK AO2 SLP190 T00111083

taf

  • KGSO 071120Z 0712/0812 03011G20KT P6SM SCT100 BKN250 FM072100 36007KT P6SM BKN200